Time;durP1;ratioP1;P1;durP2;ratioP2;P2;SDS_P1;SDS_P2;PMS_P1;PMS_P2;Temp;Humidity;BMP_temperature;BMP_pressure;BME280_temperature;BME280_humidity;BME280_pressure;Samples;Min_cycle;Max_cycle;Signal;HPM_P1;HPM_P2
2022/05/22 00:02:19;;;;;;;2.22;1.30;;;;;;;;;;7387618;19;20475;-75
2022/05/22 00:04:44;;;;;;;1.42;1.10;;;;;;;;;;7387648;19;20698;-76
2022/05/22 00:07:10;;;;;;;3.20;1.10;;;;;;;;;;7391538;19;20010;-76
2022/05/22 00:09:35;;;;;;;5.53;1.30;;;;;;;;;;7388337;19;20074;-76
2022/05/22 00:12:02;;;;;;;2.88;1.92;;;;;;;;;;7387219;19;20085;-76
2022/05/22 00:14:27;;;;;;;1.48;1.00;;;;;;;;;;7389794;19;20010;-77
2022/05/22 00:16:52;;;;;;;2.35;1.10;;;;;;;;;;7389456;19;20082;-76
2022/05/22 00:19:23;;;;;;;4.03;1.05;;;;;;;;;;7390751;19;20013;-76
2022/05/22 00:21:50;;;;;;;2.55;1.10;;;;;;;;;;7387996;19;20433;-75
2022/05/22 00:24:18;;;;;;;1.60;1.00;;;;;;;;;;7388716;19;20227;-75
2022/05/22 00:26:43;;;;;;;2.50;1.00;;;;;;;;;;7386826;19;20010;-75
2022/05/22 00:29:08;;;;;;;2.63;1.10;;;;;;;;;;7388937;19;20130;-76
2022/05/22 00:31:34;;;;;;;2.47;1.38;;;;;;;;;;7385978;19;20018;-75
2022/05/22 00:34:00;;;;;;;1.40;1.30;;;;;;;;;;7390049;19;20078;-75
2022/05/22 00:36:25;;;;;;;3.83;1.17;;;;;;;;;;7387577;19;20019;-76
2022/05/22 00:38:51;;;;;;;2.15;0.95;;;;;;;;;;7388914;19;20010;-76
2022/05/22 00:41:17;;;;;;;1.92;1.15;;;;;;;;;;7387256;19;20032;-76
2022/05/22 00:43:48;;;;;;;2.45;1.20;;;;;;;;;;7388277;19;20017;-75
2022/05/22 00:46:16;;;;;;;1.45;1.13;;;;;;;;;;7389705;19;20007;-76
2022/05/22 00:48:44;;;;;;;0.82;0.82;;;;;;;;;;7389189;19;20006;-76
2022/05/22 00:51:18;;;;;;;2.53;1.20;;;;;;;;;;7384927;19;20027;-76
2022/05/22 00:54:09;;;;;;;1.27;0.98;;;;;;;;;;7389188;19;20010;-75
2022/05/22 00:56:40;;;;;;;1.73;1.13;;;;;;;;;;7388497;19;20858;-75
2022/05/22 00:59:11;;;;;;;1.52;1.00;;;;;;;;;;7387338;19;20521;-75
2022/05/22 01:01:37;;;;;;;3.63;1.30;;;;;;;;;;7384755;19;20043;-76
2022/05/22 01:04:07;;;;;;;3.13;1.15;;;;;;;;;;7384617;19;20021;-76
2022/05/22 01:06:32;;;;;;;1.30;1.20;;;;;;;;;;7387403;19;20039;-76
2022/05/22 01:08:57;;;;;;;2.00;1.17;;;;;;;;;;7386584;19;20011;-77
2022/05/22 01:11:33;;;;;;;1.00;0.98;;;;;;;;;;7384571;19;20111;-76
2022/05/22 01:14:06;;;;;;;3.38;1.27;;;;;;;;;;7386951;19;20011;-76
2022/05/22 01:16:33;;;;;;;3.72;1.10;;;;;;;;;;7387169;19;20030;-75
2022/05/22 01:18:58;;;;;;;1.60;1.10;;;;;;;;;;7386169;19;20475;-77
2022/05/22 01:21:28;;;;;;;4.43;1.80;;;;;;;;;;7384555;19;20027;-76
2022/05/22 01:23:54;;;;;;;3.28;1.20;;;;;;;;;;7385800;19;20010;-76
2022/05/22 01:26:21;;;;;;;2.33;1.02;;;;;;;;;;7384400;19;20006;-77
2022/05/22 01:28:46;;;;;;;3.22;1.20;;;;;;;;;;7384919;19;20442;-76
2022/05/22 01:31:12;;;;;;;2.33;1.10;;;;;;;;;;7385894;19;20030;-77
2022/05/22 01:33:39;;;;;;;1.58;1.13;;;;;;;;;;7384958;19;20014;-76
2022/05/22 01:36:05;;;;;;;1.73;1.10;;;;;;;;;;7387121;19;20015;-76
2022/05/22 01:38:32;;;;;;;2.13;0.65;;;;;;;;;;7385828;19;20507;-76
2022/05/22 01:40:57;;;;;;;2.75;1.23;;;;;;;;;;7383945;19;20018;-76
2022/05/22 01:43:23;;;;;;;2.33;0.88;;;;;;;;;;7386322;19;20053;-76
2022/05/22 01:45:49;;;;;;;2.38;1.05;;;;;;;;;;7384027;19;20361;-76
2022/05/22 01:48:14;;;;;;;0.80;0.80;;;;;;;;;;7385724;19;20007;-77
2022/05/22 01:50:41;;;;;;;1.23;1.08;;;;;;;;;;7383689;19;20027;-77
2022/05/22 01:53:06;;;;;;;5.20;1.38;;;;;;;;;;7388380;19;20022;-77
2022/05/22 01:55:32;;;;;;;1.38;0.98;;;;;;;;;;7384879;19;20021;-77
2022/05/22 01:57:57;;;;;;;1.20;1.10;;;;;;;;;;7385352;19;20014;-77
2022/05/22 02:00:25;;;;;;;2.13;0.98;;;;;;;;;;7385910;19;20080;-76
2022/05/22 02:02:56;;;;;;;2.25;0.90;;;;;;;;;;7384492;19;20015;-77
2022/05/22 02:05:22;;;;;;;1.17;1.00;;;;;;;;;;7384257;19;20010;-76
2022/05/22 02:10:32;;;;;;;1.58;1.10;;;;;;;;;;7387137;19;20784;-77
2022/05/22 02:12:58;;;;;;;1.85;1.20;;;;;;;;;;7386210;19;20019;-76
2022/05/22 02:15:24;;;;;;;1.23;1.00;;;;;;;;;;7391850;19;20019;-76
2022/05/22 02:17:50;;;;;;;2.92;1.60;;;;;;;;;;7392258;19;20478;-76
2022/05/22 02:20:16;;;;;;;2.78;1.25;;;;;;;;;;7393021;19;20011;-77
2022/05/22 02:22:44;;;;;;;2.17;1.17;;;;;;;;;;7385136;19;20334;-76
2022/05/22 02:25:16;;;;;;;2.25;1.27;;;;;;;;;;7390126;19;20002;-77
2022/05/22 02:27:42;;;;;;;4.85;1.63;;;;;;;;;;7390832;19;20105;-77
2022/05/22 02:30:09;;;;;;;2.55;1.30;;;;;;;;;;7393192;19;20402;-77
2022/05/22 02:32:37;;;;;;;1.13;1.10;;;;;;;;;;7389672;19;20011;-76
2022/05/22 02:35:04;;;;;;;3.08;1.30;;;;;;;;;;7394610;19;19999;-76
2022/05/22 02:37:30;;;;;;;2.08;1.38;;;;;;;;;;7391582;19;20014;-76
2022/05/22 02:39:57;;;;;;;1.85;1.05;;;;;;;;;;7390064;19;20027;-76
2022/05/22 02:42:22;;;;;;;1.17;1.00;;;;;;;;;;7389111;19;20011;-76
2022/05/22 02:44:47;;;;;;;1.77;1.13;;;;;;;;;;7392286;19;20100;-76
2022/05/22 02:47:13;;;;;;;4.85;1.20;;;;;;;;;;7393032;19;20006;-76
2022/05/22 02:49:38;;;;;;;1.90;1.20;;;;;;;;;;7392578;19;20002;-76
2022/05/22 02:52:04;;;;;;;1.88;1.20;;;;;;;;;;7390858;19;20459;-77
2022/05/22 02:54:29;;;;;;;1.70;1.10;;;;;;;;;;7390694;19;20090;-76
2022/05/22 02:56:54;;;;;;;1.42;1.10;;;;;;;;;;7393302;19;20018;-76
2022/05/22 02:59:20;;;;;;;1.85;1.17;;;;;;;;;;7391906;19;20092;-77
2022/05/22 03:01:45;;;;;;;2.05;1.30;;;;;;;;;;7389093;19;20106;-76
2022/05/22 03:04:10;;;;;;;1.42;1.33;;;;;;;;;;7391047;19;20431;-76
2022/05/22 03:06:38;;;;;;;1.75;1.25;;;;;;;;;;7390989;19;20035;-76
2022/05/22 03:09:05;;;;;;;1.95;1.00;;;;;;;;;;7391272;19;20660;-76
2022/05/22 03:11:30;;;;;;;1.90;1.05;;;;;;;;;;7387882;19;20014;-76
2022/05/22 03:13:55;;;;;;;1.67;1.27;;;;;;;;;;7391908;19;20006;-76
2022/05/22 03:16:21;;;;;;;4.15;1.13;;;;;;;;;;7390026;19;20085;-76
2022/05/22 03:18:46;;;;;;;1.08;0.90;;;;;;;;;;7391419;19;20472;-75
2022/05/22 03:21:13;;;;;;;2.13;1.10;;;;;;;;;;7387452;19;20086;-75
2022/05/22 03:23:38;;;;;;;1.58;1.17;;;;;;;;;;7390849;19;20082;-75
2022/05/22 03:26:03;;;;;;;1.40;1.00;;;;;;;;;;7387861;19;21871;-76
2022/05/22 03:28:28;;;;;;;2.92;1.20;;;;;;;;;;7389473;19;20031;-75
2022/05/22 03:30:54;;;;;;;2.97;1.30;;;;;;;;;;7388360;19;20656;-75
2022/05/22 03:33:19;;;;;;;1.30;1.02;;;;;;;;;;7387574;19;19998;-75
2022/05/22 03:35:44;;;;;;;0.95;0.90;;;;;;;;;;7390177;19;20018;-75
2022/05/22 03:38:10;;;;;;;1.50;1.10;;;;;;;;;;7385673;19;20010;-74
2022/05/22 03:40:47;;;;;;;1.38;1.15;;;;;;;;;;7389327;19;20015;-76
2022/05/22 03:43:20;;;;;;;1.63;1.20;;;;;;;;;;7404821;19;20051;-76
2022/05/22 03:45:46;;;;;;;1.30;1.20;;;;;;;;;;7395566;19;20054;-76
2022/05/22 03:48:11;;;;;;;1.30;1.20;;;;;;;;;;7403207;19;21008;-76
2022/05/22 03:50:37;;;;;;;1.45;1.20;;;;;;;;;;7397494;19;20038;-76
2022/05/22 03:53:03;;;;;;;5.60;1.65;;;;;;;;;;7398271;19;20048;-76
2022/05/22 03:55:28;;;;;;;1.20;1.10;;;;;;;;;;7395744;19;20007;-75
2022/05/22 03:57:54;;;;;;;1.27;1.00;;;;;;;;;;7394189;19;20002;-75
2022/05/22 04:00:23;;;;;;;1.75;1.10;;;;;;;;;;7392778;19;20010;-75
2022/05/22 04:02:48;;;;;;;1.67;1.23;;;;;;;;;;7393958;19;20022;-75
2022/05/22 04:05:13;;;;;;;1.45;1.20;;;;;;;;;;7393351;19;20007;-76
2022/05/22 04:07:41;;;;;;;3.55;1.40;;;;;;;;;;7391484;19;20018;-74
2022/05/22 04:10:08;;;;;;;2.70;1.40;;;;;;;;;;7385376;19;20055;-75
2022/05/22 04:12:34;;;;;;;1.17;1.08;;;;;;;;;;7388798;19;20021;-76
2022/05/22 04:14:59;;;;;;;2.05;1.20;;;;;;;;;;7388295;19;20446;-75
2022/05/22 04:17:24;;;;;;;2.55;0.90;;;;;;;;;;7390313;19;20018;-75
2022/05/22 04:19:50;;;;;;;2.58;1.10;;;;;;;;;;7391160;19;20016;-75
2022/05/22 04:22:15;;;;;;;2.80;1.58;;;;;;;;;;7387804;19;20002;-75
2022/05/22 04:27:25;;;;;;;1.10;1.00;;;;;;;;;;7389177;19;20031;-76
2022/05/22 04:29:50;;;;;;;1.40;1.17;;;;;;;;;;7385708;19;20006;-77
2022/05/22 04:32:15;;;;;;;1.98;1.60;;;;;;;;;;7389498;19;20304;-77
2022/05/22 04:34:41;;;;;;;2.88;1.15;;;;;;;;;;7391533;19;20025;-77
2022/05/22 04:37:06;;;;;;;1.40;1.30;;;;;;;;;;7391524;19;20009;-77
2022/05/22 04:39:31;;;;;;;1.15;1.05;;;;;;;;;;7387546;19;20319;-77
2022/05/22 04:41:57;;;;;;;1.90;1.08;;;;;;;;;;7384965;19;20002;-77
2022/05/22 04:44:22;;;;;;;2.40;1.35;;;;;;;;;;7387391;19;20120;-77
2022/05/22 04:46:47;;;;;;;2.28;1.30;;;;;;;;;;7389027;19;20010;-77
2022/05/22 04:49:12;;;;;;;2.03;0.90;;;;;;;;;;7385701;19;20034;-76
2022/05/22 04:51:38;;;;;;;2.47;1.30;;;;;;;;;;7382661;19;20017;-77
2022/05/22 04:54:03;;;;;;;1.40;1.30;;;;;;;;;;7389879;19;20017;-75
2022/05/22 04:56:29;;;;;;;1.77;1.55;;;;;;;;;;7384305;19;20492;-75
2022/05/22 04:58:54;;;;;;;1.65;1.30;;;;;;;;;;7386182;19;20015;-76
2022/05/22 05:01:19;;;;;;;11.10;1.83;;;;;;;;;;7383422;19;20014;-76
2022/05/22 05:03:45;;;;;;;1.98;1.25;;;;;;;;;;7334042;19;20166;-76
2022/05/22 05:06:10;;;;;;;3.38;1.52;;;;;;;;;;7384084;19;20013;-75
2022/05/22 05:08:36;;;;;;;1.85;1.50;;;;;;;;;;7386683;19;20435;-76
2022/05/22 05:11:01;;;;;;;4.53;1.55;;;;;;;;;;7385252;19;20010;-76
2022/05/22 05:13:28;;;;;;;3.97;1.50;;;;;;;;;;7387829;19;20425;-76
2022/05/22 05:16:05;;;;;;;3.50;1.40;;;;;;;;;;7388110;19;20018;-75
2022/05/22 05:18:32;;;;;;;2.15;1.50;;;;;;;;;;7386299;19;20010;-74
2022/05/22 05:21:02;;;;;;;4.22;1.60;;;;;;;;;;7381610;19;20621;-76
2022/05/22 05:23:28;;;;;;;1.98;1.77;;;;;;;;;;7386474;19;20007;-76
2022/05/22 05:25:53;;;;;;;5.40;1.98;;;;;;;;;;7381896;19;20011;-75
2022/05/22 05:28:18;;;;;;;1.45;1.35;;;;;;;;;;7388411;19;20074;-74
2022/05/22 05:30:44;;;;;;;3.47;1.90;;;;;;;;;;7378072;19;20347;-74
2022/05/22 05:33:09;;;;;;;1.90;1.40;;;;;;;;;;7382059;19;20014;-74
2022/05/22 05:35:35;;;;;;;2.28;1.42;;;;;;;;;;7385238;19;20003;-74
2022/05/22 05:38:00;;;;;;;4.95;1.60;;;;;;;;;;7377998;19;20006;-78
2022/05/22 05:40:29;;;;;;;2.85;1.60;;;;;;;;;;7385030;19;20003;-77
2022/05/22 05:42:55;;;;;;;1.33;1.23;;;;;;;;;;7383771;19;20158;-77
2022/05/22 05:45:24;;;;;;;3.47;1.48;;;;;;;;;;7385798;19;20481;-78
2022/05/22 05:47:50;;;;;;;4.10;1.50;;;;;;;;;;7387149;19;20013;-77
2022/05/22 05:50:21;;;;;;;1.75;1.60;;;;;;;;;;7391000;19;20007;-77
2022/05/22 05:52:49;;;;;;;2.72;1.60;;;;;;;;;;7386217;19;20042;-76
2022/05/22 05:55:15;;;;;;;3.15;1.60;;;;;;;;;;7394016;19;20006;-77
2022/05/22 05:57:40;;;;;;;1.65;1.40;;;;;;;;;;7390768;19;20066;-76
2022/05/22 06:00:08;;;;;;;4.53;1.60;;;;;;;;;;7394811;19;20007;-77
2022/05/22 06:02:33;;;;;;;2.05;1.58;;;;;;;;;;7384292;19;20007;-77
2022/05/22 06:04:58;;;;;;;2.17;1.85;;;;;;;;;;7389247;19;20003;-77
2022/05/22 06:07:23;;;;;;;3.00;1.85;;;;;;;;;;7387713;19;20036;-76
2022/05/22 06:09:49;;;;;;;3.55;1.65;;;;;;;;;;7389013;19;20496;-76
2022/05/22 06:12:14;;;;;;;1.73;1.40;;;;;;;;;;7385065;19;20127;-77
2022/05/22 06:14:39;;;;;;;5.75;1.55;;;;;;;;;;7391674;19;20014;-78
2022/05/22 06:17:05;;;;;;;2.05;1.25;;;;;;;;;;7392189;19;20455;-77
2022/05/22 06:22:24;;;;;;;2.33;1.67;;;;;;;;;;7386748;19;20037;-77
2022/05/22 06:24:50;;;;;;;2.28;1.33;;;;;;;;;;7387332;19;20049;-77
2022/05/22 06:27:15;;;;;;;2.97;1.38;;;;;;;;;;7387166;19;20521;-77
2022/05/22 06:29:41;;;;;;;3.08;1.45;;;;;;;;;;7387932;19;20010;-77
2022/05/22 06:32:10;;;;;;;3.88;1.55;;;;;;;;;;7390223;19;20349;-77
2022/05/22 06:34:36;;;;;;;3.45;1.27;;;;;;;;;;7386090;19;20011;-77
2022/05/22 06:37:03;;;;;;;1.27;1.10;;;;;;;;;;7393570;19;20028;-78
2022/05/22 06:42:14;;;;;;;2.17;1.70;;;;;;;;;;7392306;19;20031;-77
2022/05/22 06:44:40;;;;;;;1.73;1.02;;;;;;;;;;7394365;19;20282;-79
2022/05/22 06:47:06;;;;;;;2.63;1.20;;;;;;;;;;7389911;19;20347;-77
2022/05/22 06:49:31;;;;;;;3.50;0.95;;;;;;;;;;7390640;19;20066;-79
2022/05/22 06:51:56;;;;;;;1.25;0.85;;;;;;;;;;7388097;19;20327;-78
2022/05/22 06:54:22;;;;;;;1.48;0.80;;;;;;;;;;7392918;19;20014;-77
2022/05/22 06:56:47;;;;;;;2.63;1.35;;;;;;;;;;7390935;19;20003;-77
2022/05/22 06:59:12;;;;;;;2.90;1.00;;;;;;;;;;7393349;19;21192;-77
2022/05/22 07:01:38;;;;;;;1.30;0.90;;;;;;;;;;7389399;19;20006;-77
2022/05/22 07:04:04;;;;;;;2.30;0.80;;;;;;;;;;7387879;19;20018;-77
2022/05/22 07:06:29;;;;;;;1.40;0.85;;;;;;;;;;7392256;19;20066;-77
2022/05/22 07:08:54;;;;;;;4.38;1.00;;;;;;;;;;7390385;19;20504;-78
2022/05/22 07:14:04;;;;;;;1.98;0.70;;;;;;;;;;7394206;19;20063;-78
2022/05/22 07:16:29;;;;;;;1.30;0.77;;;;;;;;;;7393066;19;20015;-78
2022/05/22 07:18:54;;;;;;;4.82;0.75;;;;;;;;;;7391470;19;20014;-78
2022/05/22 07:21:20;;;;;;;2.05;0.80;;;;;;;;;;7387330;19;20143;-78
2022/05/22 07:23:45;;;;;;;3.08;0.88;;;;;;;;;;7394391;19;20018;-78
2022/05/22 07:26:12;;;;;;;1.05;0.90;;;;;;;;;;7391910;19;20018;-78
2022/05/22 07:28:37;;;;;;;1.75;0.80;;;;;;;;;;7393466;19;20018;-78
2022/05/22 07:31:02;;;;;;;4.47;1.98;;;;;;;;;;7391961;19;20027;-79
2022/05/22 07:33:28;;;;;;;1.63;1.00;;;;;;;;;;7390412;19;20023;-78
2022/05/22 07:35:58;;;;;;;2.58;1.02;;;;;;;;;;7393661;19;20078;-79
2022/05/22 07:38:24;;;;;;;4.88;1.10;;;;;;;;;;7391361;19;21911;-78
2022/05/22 07:40:51;;;;;;;1.55;1.13;;;;;;;;;;7392282;19;20470;-78
2022/05/22 07:43:17;;;;;;;1.95;0.90;;;;;;;;;;7392445;19;20015;-78
2022/05/22 07:45:42;;;;;;;3.03;0.93;;;;;;;;;;7387020;19;20010;-79
2022/05/22 07:48:08;;;;;;;2.00;1.02;;;;;;;;;;7391554;19;20576;-79
2022/05/22 07:50:34;;;;;;;1.52;0.88;;;;;;;;;;7390213;19;20032;-79
2022/05/22 07:53:00;;;;;;;1.83;0.77;;;;;;;;;;7390206;19;20380;-78
2022/05/22 07:55:25;;;;;;;4.45;0.90;;;;;;;;;;7392640;19;20363;-79
2022/05/22 07:57:50;;;;;;;3.30;1.10;;;;;;;;;;7388363;19;20034;-78
2022/05/22 08:00:20;;;;;;;2.25;0.90;;;;;;;;;;7394343;19;20018;-79
2022/05/22 08:02:47;;;;;;;4.22;0.85;;;;;;;;;;7384449;19;20007;-78
2022/05/22 08:05:15;;;;;;;0.50;0.50;;;;;;;;;;7388389;19;20288;-78
2022/05/22 08:07:40;;;;;;;1.52;0.70;;;;;;;;;;7389138;19;20019;-78
2022/05/22 08:10:09;;;;;;;1.88;0.63;;;;;;;;;;7389953;19;20011;-81
2022/05/22 08:12:42;;;;;;;0.95;0.70;;;;;;;;;;7382163;19;20098;-78
2022/05/22 08:15:09;;;;;;;2.30;0.52;;;;;;;;;;7391148;19;20112;-78
2022/05/22 08:17:37;;;;;;;2.42;0.90;;;;;;;;;;7382730;19;20011;-78
2022/05/22 08:20:12;;;;;;;4.10;1.10;;;;;;;;;;7386483;19;20013;-79
2022/05/22 08:22:37;;;;;;;;;;;;;;;;;;7386051;19;20018;-79
2022/05/22 08:25:04;;;;;;;3.05;1.30;;;;;;;;;;7387526;19;19917;-78
2022/05/22 08:27:29;;;;;;;2.45;1.08;;;;;;;;;;7387945;19;20561;-77
2022/05/22 08:29:55;;;;;;;1.25;0.70;;;;;;;;;;7389434;19;20013;-78
2022/05/22 08:32:20;;;;;;;1.38;0.77;;;;;;;;;;7386290;19;20114;-78
2022/05/22 08:34:46;;;;;;;2.13;0.70;;;;;;;;;;7386530;19;20027;-77
2022/05/22 08:37:11;;;;;;;2.25;0.73;;;;;;;;;;7391164;19;20036;-79
2022/05/22 08:39:36;;;;;;;0.70;0.60;;;;;;;;;;7389354;19;20011;-79
2022/05/22 08:42:08;;;;;;;1.20;0.82;;;;;;;;;;7392034;19;20006;-80
2022/05/22 08:44:34;;;;;;;0.93;0.70;;;;;;;;;;7385093;19;20035;-81
2022/05/22 08:47:06;;;;;;;1.80;1.05;;;;;;;;;;7399509;19;20010;-81
2022/05/22 08:50:00;;;;;;;1.20;0.60;;;;;;;;;;7398005;19;20481;-79
2022/05/22 08:52:38;;;;;;;2.67;0.95;;;;;;;;;;7385030;19;20006;-79
2022/05/22 08:55:09;;;;;;;2.63;0.95;;;;;;;;;;7383729;19;20042;-79
2022/05/22 09:00:37;;;;;;;2.58;0.77;;;;;;;;;;7385470;19;20040;-76
2022/05/22 09:03:20;;;;;;;0.75;0.50;;;;;;;;;;7389513;19;20019;-78
2022/05/22 09:05:50;;;;;;;1.38;0.63;;;;;;;;;;7388363;19;20074;-78
2022/05/22 09:08:20;;;;;;;1.73;0.82;;;;;;;;;;7389887;19;20414;-78
2022/05/22 09:10:48;;;;;;;1.38;0.63;;;;;;;;;;7385449;19;20014;-76
2022/05/22 09:13:45;;;;;;;1.55;0.70;;;;;;;;;;7387746;19;20018;-77
2022/05/22 09:16:15;;;;;;;1.42;0.50;;;;;;;;;;7387884;19;20074;-78
2022/05/22 09:18:55;;;;;;;2.17;0.82;;;;;;;;;;7386188;19;20138;-78
2022/05/22 09:21:42;;;;;;;2.50;1.00;;;;;;;;;;7385663;19;20017;-78
2022/05/22 09:24:24;;;;;;;1.13;0.70;;;;;;;;;;7392962;19;20017;-78
2022/05/22 09:27:03;;;;;;;2.05;0.60;;;;;;;;;;7396028;19;20013;-80
2022/05/22 09:29:54;;;;;;;4.53;0.70;;;;;;;;;;7397038;19;20006;-78
2022/05/22 09:32:25;;;;;;;3.15;0.80;;;;;;;;;;7390589;19;20525;-78
2022/05/22 09:35:12;;;;;;;1.27;0.60;;;;;;;;;;7395758;19;20011;-76
2022/05/22 09:38:06;;;;;;;1.58;0.73;;;;;;;;;;7396505;19;20006;-77
2022/05/22 09:40:47;;;;;;;1.02;0.63;;;;;;;;;;7395498;19;20018;-78
2022/05/22 09:43:42;;;;;;;0.73;0.60;;;;;;;;;;7396517;19;20040;-77
2022/05/22 09:46:29;;;;;;;1.70;1.00;;;;;;;;;;7392414;19;20498;-78
2022/05/22 09:49:17;;;;;;;1.38;0.68;;;;;;;;;;7395134;19;20026;-79
2022/05/22 09:51:58;;;;;;;2.08;0.73;;;;;;;;;;7391970;19;20014;-77
2022/05/22 09:54:39;;;;;;;1.60;0.65;;;;;;;;;;7394570;19;19986;-77
2022/05/22 09:57:14;;;;;;;1.42;0.90;;;;;;;;;;7394901;19;20501;-77
2022/05/22 10:00:02;;;;;;;3.70;1.15;;;;;;;;;;7396255;19;20002;-78
2022/05/22 10:02:51;;;;;;;1.95;0.90;;;;;;;;;;7390520;19;20003;-78
2022/05/22 10:05:23;;;;;;;1.63;0.70;;;;;;;;;;7394779;19;20003;-78
2022/05/22 10:08:07;;;;;;;1.85;0.90;;;;;;;;;;7399075;19;20017;-80
2022/05/22 10:10:57;;;;;;;0.82;0.50;;;;;;;;;;7394392;19;20006;-79
2022/05/22 10:13:40;;;;;;;1.48;0.60;;;;;;;;;;7396531;19;20002;-79
2022/05/22 10:16:11;;;;;;;1.20;0.40;;;;;;;;;;7393473;19;20020;-79
2022/05/22 10:19:03;;;;;;;1.48;0.60;;;;;;;;;;7395235;19;20078;-79
2022/05/22 10:21:41;;;;;;;1.15;0.70;;;;;;;;;;7393009;19;20022;-79
2022/05/22 10:24:29;;;;;;;0.65;0.45;;;;;;;;;;7395918;19;20032;-80
2022/05/22 10:27:10;;;;;;;1.13;0.50;;;;;;;;;;7393324;19;20039;-79
2022/05/22 10:29:57;;;;;;;4.65;2.83;;;;;;;;;;7392937;19;20452;-77
2022/05/22 10:32:30;;;;;;;1.35;0.70;;;;;;;;;;7388652;19;20398;-78
2022/05/22 10:34:59;;;;;;;1.10;0.52;;;;;;;;;;7393208;19;19991;-78
2022/05/22 10:37:36;;;;;;;1.10;0.60;;;;;;;;;;7394849;19;20024;-78
2022/05/22 10:40:06;;;;;;;0.95;0.60;;;;;;;;;;7392947;19;20013;-77
2022/05/22 10:42:49;;;;;;;1.75;0.70;;;;;;;;;;7389413;19;20074;-78
2022/05/22 10:45:32;;;;;;;1.05;0.57;;;;;;;;;;7393222;19;20014;-77
2022/05/22 10:48:12;;;;;;;1.83;0.60;;;;;;;;;;7393475;19;20103;-78
2022/05/22 10:50:50;;;;;;;1.45;0.77;;;;;;;;;;7393047;19;20968;-78
2022/05/22 10:53:29;;;;;;;0.73;0.50;;;;;;;;;;7395672;19;20078;-79
2022/05/22 10:56:04;;;;;;;2.17;0.50;;;;;;;;;;7394063;19;20035;-78
2022/05/22 10:58:32;;;;;;;3.33;0.70;;;;;;;;;;7395658;19;20018;-78
2022/05/22 11:01:02;;;;;;;1.77;0.73;;;;;;;;;;7389175;19;20011;-77
2022/05/22 11:03:33;;;;;;;3.22;0.70;;;;;;;;;;7393669;19;20006;-77
2022/05/22 11:06:02;;;;;;;0.55;0.55;;;;;;;;;;7392233;19;20450;-77
2022/05/22 11:08:33;;;;;;;2.92;0.63;;;;;;;;;;7394078;19;20664;-77
2022/05/22 11:11:12;;;;;;;0.73;0.70;;;;;;;;;;7391319;19;20014;-78
2022/05/22 11:13:37;;;;;;;2.70;0.55;;;;;;;;;;7393745;19;19998;-79
2022/05/22 11:16:29;;;;;;;2.00;0.60;;;;;;;;;;7392189;19;20384;-78
2022/05/22 11:19:20;;;;;;;1.08;0.63;;;;;;;;;;7392611;19;20023;-78
2022/05/22 11:22:14;;;;;;;1.48;0.40;;;;;;;;;;7391784;19;20011;-79
2022/05/22 11:25:09;;;;;;;1.85;0.50;;;;;;;;;;7394877;19;19999;-79
2022/05/22 11:27:51;;;;;;;1.27;0.73;;;;;;;;;;7394283;19;20002;-79
2022/05/22 11:30:29;;;;;;;1.92;0.65;;;;;;;;;;7393494;19;20455;-78
2022/05/22 11:33:32;;;;;;;1.15;0.60;;;;;;;;;;7388793;19;20007;-77
2022/05/22 11:36:26;;;;;;;0.85;0.50;;;;;;;;;;7393801;19;20014;-78
2022/05/22 11:39:23;;;;;;;2.72;0.70;;;;;;;;;;7389791;19;19995;-78
2022/05/22 11:42:21;;;;;;;0.77;0.52;;;;;;;;;;7387879;19;20348;-78
2022/05/22 11:45:20;;;;;;;1.02;0.50;;;;;;;;;;7389629;19;20046;-78
2022/05/22 11:48:11;;;;;;;2.78;0.70;;;;;;;;;;7392616;19;20019;-80
2022/05/22 11:51:14;;;;;;;2.72;0.75;;;;;;;;;;7384089;19;20036;-78
2022/05/22 11:53:48;;;;;;;0.65;0.50;;;;;;;;;;7393644;19;20002;-78
2022/05/22 11:56:22;;;;;;;1.20;0.73;;;;;;;;;;7391697;19;20018;-79
2022/05/22 11:59:05;;;;;;;1.25;0.52;;;;;;;;;;7391805;19;20012;-78
2022/05/22 12:01:34;;;;;;;0.63;0.32;;;;;;;;;;7389869;19;20026;-79
2022/05/22 12:04:53;;;;;;;1.63;0.50;;;;;;;;;;7390274;19;20050;-78
2022/05/22 12:07:47;;;;;;;0.57;0.45;;;;;;;;;;7387079;19;20014;-80
2022/05/22 12:10:33;;;;;;;2.00;0.68;;;;;;;;;;7392477;19;20018;-80
2022/05/22 12:13:45;;;;;;;1.30;0.60;;;;;;;;;;7388832;19;20007;-76
2022/05/22 12:16:32;;;;;;;1.17;0.50;;;;;;;;;;7391756;19;20011;-77
2022/05/22 12:19:22;;;;;;;0.52;0.52;;;;;;;;;;7389693;19;20015;-80
2022/05/22 12:21:51;;;;;;;0.50;0.40;;;;;;;;;;7388001;19;20007;-79
2022/05/22 12:24:23;;;;;;;1.38;0.50;;;;;;;;;;7390059;19;20018;-79
2022/05/22 12:26:50;;;;;;;0.70;0.50;;;;;;;;;;7390043;19;20011;-79
2022/05/22 12:29:27;;;;;;;1.17;0.60;;;;;;;;;;7390103;19;20008;-78
2022/05/22 12:31:57;;;;;;;2.70;0.60;;;;;;;;;;7386458;19;20389;-78
2022/05/22 12:34:40;;;;;;;2.78;0.70;;;;;;;;;;7389822;19;20014;-79
2022/05/22 12:37:11;;;;;;;1.00;0.50;;;;;;;;;;7390700;19;20491;-79
2022/05/22 12:39:47;;;;;;;0.90;0.50;;;;;;;;;;7389205;19;20025;-78
2022/05/22 12:42:30;;;;;;;0.55;0.43;;;;;;;;;;7389047;19;20019;-79
2022/05/22 12:44:55;;;;;;;0.90;0.57;;;;;;;;;;7390816;19;20010;-78
2022/05/22 12:47:21;;;;;;;0.73;0.50;;;;;;;;;;7387540;19;19998;-78
2022/05/22 12:49:58;;;;;;;0.75;0.60;;;;;;;;;;7390988;19;20302;-79
2022/05/22 12:52:23;;;;;;;0.65;0.65;;;;;;;;;;7387499;19;20013;-79
2022/05/22 12:54:57;;;;;;;0.63;0.60;;;;;;;;;;7391567;19;19999;-78
2022/05/22 12:57:23;;;;;;;2.93;0.60;;;;;;;;;;7388622;19;20287;-79
2022/05/22 13:00:11;;;;;;;2.28;0.60;;;;;;;;;;7388748;19;20038;-77
2022/05/22 13:02:45;;;;;;;1.30;0.80;;;;;;;;;;7386198;19;20466;-78
2022/05/22 13:05:15;;;;;;;3.33;0.57;;;;;;;;;;7388179;19;20007;-79
2022/05/22 13:07:42;;;;;;;1.55;0.70;;;;;;;;;;7389129;19;20038;-78
2022/05/22 13:10:42;;;;;;;1.30;0.45;;;;;;;;;;7389967;19;20006;-80
2022/05/22 13:13:09;;;;;;;2.67;0.68;;;;;;;;;;7385058;19;20022;-79
2022/05/22 13:15:35;;;;;;;1.77;0.73;;;;;;;;;;7388663;19;20007;-79
2022/05/22 13:18:15;;;;;;;0.55;0.50;;;;;;;;;;7388687;19;20007;-78
2022/05/22 13:20:48;;;;;;;0.50;0.50;;;;;;;;;;7385207;19;20011;-78
2022/05/22 13:23:22;;;;;;;1.67;0.60;;;;;;;;;;7389663;19;20017;-80
2022/05/22 13:25:51;;;;;;;0.77;0.52;;;;;;;;;;7386419;19;20122;-78
2022/05/22 13:28:26;;;;;;;1.77;1.30;;;;;;;;;;7389116;19;20018;-78
2022/05/22 13:30:57;;;;;;;2.03;0.82;;;;;;;;;;7385450;19;20003;-77
2022/05/22 13:33:24;;;;;;;0.88;0.68;;;;;;;;;;7388655;19;20049;-79
2022/05/22 13:35:56;;;;;;;1.33;0.60;;;;;;;;;;7388680;19;20034;-78
2022/05/22 13:38:22;;;;;;;0.50;0.50;;;;;;;;;;7386649;19;20018;-78
2022/05/22 13:41:12;;;;;;;0.82;0.55;;;;;;;;;;7386305;19;20014;-79
2022/05/22 13:44:11;;;;;;;1.83;0.75;;;;;;;;;;7388473;19;20123;-78
2022/05/22 13:47:15;;;;;;;1.42;0.60;;;;;;;;;;7385550;19;20128;-77
2022/05/22 13:49:52;;;;;;;0.98;0.52;;;;;;;;;;7384990;19;20007;-78
2022/05/22 13:52:47;;;;;;;0.80;0.52;;;;;;;;;;7384097;19;20446;-79
2022/05/22 13:55:17;;;;;;;1.38;0.60;;;;;;;;;;7390140;19;20114;-79
2022/05/22 13:58:03;;;;;;;2.83;0.63;;;;;;;;;;7387482;19;20527;-78
2022/05/22 14:00:34;;;;;;;1.05;0.80;;;;;;;;;;7386384;19;20006;-80
2022/05/22 14:03:04;;;;;;;1.30;0.70;;;;;;;;;;7385664;19;20018;-79
2022/05/22 14:05:39;;;;;;;1.75;0.70;;;;;;;;;;7384717;19;20365;-78
2022/05/22 14:08:34;;;;;;;0.35;0.35;;;;;;;;;;7387959;19;20120;-76
2022/05/22 14:11:11;;;;;;;0.63;0.43;;;;;;;;;;7388894;19;20096;-79
2022/05/22 14:13:37;;;;;;;0.93;0.40;;;;;;;;;;7395242;19;20015;-79
2022/05/22 14:16:06;;;;;;;2.20;0.70;;;;;;;;;;7396525;19;20010;-78
2022/05/22 14:18:34;;;;;;;0.45;0.40;;;;;;;;;;7404057;19;20806;-79
2022/05/22 14:21:06;;;;;;;1.52;0.75;;;;;;;;;;7399835;19;20590;-79
2022/05/22 14:24:51;;;;;;;1.08;0.75;;;;;;;;;;7400040;19;20011;-79
2022/05/22 14:26:24;;;;;;;3.75;0.60;;;;;;;;;;7391928;19;20002;-79
2022/05/22 14:28:52;;;;;;;1.40;0.80;;;;;;;;;;7396215;19;20063;-80
2022/05/22 14:31:18;;;;;;;0.43;0.43;;;;;;;;;;7396804;19;20003;-79
2022/05/22 14:33:44;;;;;;;0.77;0.60;;;;;;;;;;7395885;19;20070;-79
2022/05/22 14:36:19;;;;;;;0.90;0.50;;;;;;;;;;7397164;19;20743;-78
2022/05/22 14:38:45;;;;;;;;;;;;;;;;;;7395741;19;20003;-76
2022/05/22 14:41:15;;;;;;;0.98;0.40;;;;;;;;;;7392668;19;19919;-78
2022/05/22 14:43:43;;;;;;;0.70;0.50;;;;;;;;;;7395033;19;20464;-79
2022/05/22 14:46:13;;;;;;;2.28;0.55;;;;;;;;;;7394528;19;20355;-79
2022/05/22 14:48:43;;;;;;;1.38;0.57;;;;;;;;;;7395272;19;20094;-79
2022/05/22 14:51:51;;;;;;;1.20;0.70;;;;;;;;;;7394450;19;20003;-79
2022/05/22 14:54:25;;;;;;;3.13;2.83;;;;;;;;;;7395813;19;20135;-80
2022/05/22 14:57:04;;;;;;;1.50;1.23;;;;;;;;;;7394681;19;20010;-78
2022/05/22 14:59:58;;;;;;;1.10;0.63;;;;;;;;;;7396102;19;20023;-77
2022/05/22 15:02:36;;;;;;;2.25;0.57;;;;;;;;;;7390304;19;19999;-77
2022/05/22 15:05:09;;;;;;;0.60;0.60;;;;;;;;;;7393262;19;20044;-77
2022/05/22 15:07:35;;;;;;;1.02;0.70;;;;;;;;;;7394156;19;20004;-78
2022/05/22 15:10:18;;;;;;;0.88;0.57;;;;;;;;;;7394272;19;20011;-78
2022/05/22 15:12:45;;;;;;;0.98;0.50;;;;;;;;;;7388673;19;20019;-77
2022/05/22 15:15:22;;;;;;;0.82;0.65;;;;;;;;;;7396055;19;20007;-78
2022/05/22 15:18:01;;;;;;;1.60;0.70;;;;;;;;;;7398615;19;20104;-78
2022/05/22 15:20:31;;;;;;;0.95;0.60;;;;;;;;;;7393697;19;20010;-77
2022/05/22 15:25:45;;;;;;;0.68;0.50;;;;;;;;;;7389613;19;20755;-79
2022/05/22 15:28:15;;;;;;;1.15;0.50;;;;;;;;;;7387551;19;20015;-78
2022/05/22 15:30:51;;;;;;;1.33;0.60;;;;;;;;;;7389445;19;20019;-78